Time;durP1;ratioP1;P1;durP2;ratioP2;P2;SDS_P1;SDS_P2;PMS_P1;PMS_P2;Temp;Humidity;BMP_temperature;BMP_pressure;BME280_temperature;BME280_humidity;BME280_pressure;Samples;Min_cycle;Max_cycle;Signal;HPM_P1;HPM_P2
2022/09/06 00:00:28;;;;;;;20.38;7.82;;;;;;;19.46;100.00;100311.00;5128494;27;20368;-61
2022/09/06 00:04:09;;;;;;;23.27;7.37;;;;;;;19.46;100.00;100311.00;5076670;27;20066;-61
2022/09/06 00:07:36;;;;;;;18.30;7.50;;;;;;;19.49;100.00;100310.81;5030005;28;20311;-62
2022/09/06 00:10:39;;;;;;;11.73;7.07;;;;;;;19.55;100.00;100321.13;5058872;28;20584;-62
2022/09/06 00:13:29;;;;;;;16.67;7.17;;;;;;;19.57;100.00;100329.84;5060125;28;20279;-62
2022/09/06 00:16:30;;;;;;;11.30;7.03;;;;;;;19.59;100.00;100320.88;5059443;28;20302;-62
2022/09/06 00:19:58;;;;;;;16.23;7.30;;;;;;;19.61;100.00;100315.47;4958965;27;5577502;-62
2022/09/06 00:22:45;;;;;;;11.17;6.47;;;;;;;19.26;100.00;100256.41;5158709;27;20084;-61
2022/09/06 00:25:27;;;;;;;11.50;6.23;;;;;;;19.57;100.00;100295.41;5159866;27;20303;-62
2022/09/06 00:31:21;;;;;;;11.70;5.80;;;;;;;19.80;100.00;100313.59;5158854;27;20103;-61
2022/09/06 00:34:55;;;;;;;12.97;6.27;;;;;;;19.87;100.00;100316.78;5132159;27;20284;-61
2022/09/06 00:38:07;;;;;;;11.38;6.28;;;;;;;19.86;100.00;100308.91;5159389;27;20311;-60
2022/09/06 00:44:20;;;;;;;9.87;5.43;;;;;;;20.01;100.00;100308.06;5159207;27;20407;-61
2022/09/06 00:47:33;;;;;;;12.17;5.27;;;;;;;20.13;100.00;100312.69;5159435;27;20295;-61
2022/09/06 00:50:11;;;;;;;7.03;4.80;;;;;;;20.15;100.00;100304.66;5158742;27;20633;-61
2022/09/06 00:53:22;;;;;;;8.47;4.70;;;;;;;20.20;100.00;100323.81;5134525;27;20292;-61
2022/09/06 00:56:24;;;;;;;14.57;6.40;;;;;;;20.17;100.00;100308.94;5158997;27;20281;-61
2022/09/06 00:59:17;;;;;;;7.50;4.13;;;;;;;20.14;100.00;100309.09;5159172;27;20308;-62
2022/09/06 01:02:08;;;;;;;8.40;4.60;;;;;;;20.13;100.00;100311.84;5159242;27;20288;-62
2022/09/06 01:05:00;;;;;;;8.55;4.60;;;;;;;20.09;100.00;100305.81;5157477;27;20957;-62
2022/09/06 01:07:56;;;;;;;9.05;6.90;;;;;;;19.97;100.00;100291.47;5157156;27;20043;-62
2022/09/06 01:11:40;;;;;;;14.03;6.20;;;;;;;19.86;100.00;100267.31;5156583;27;20066;-61
2022/09/06 01:14:29;;;;;;;6.78;4.65;;;;;;;19.92;100.00;100292.63;5159129;27;20055;-62
2022/09/06 01:17:39;;;;;;;13.30;6.30;;;;;;;19.89;100.00;100292.81;5159245;27;20681;-61
2022/09/06 01:21:00;;;;;;;13.83;7.30;;;;;;;19.94;100.00;100285.47;5117419;27;20313;-62
2022/09/06 01:24:08;;;;;;;14.67;6.03;;;;;;;19.97;100.00;100274.72;5131113;27;20306;-62
2022/09/06 01:27:13;;;;;;;11.17;5.80;;;;;;;19.95;100.00;100288.03;5158948;27;20280;-62
2022/09/06 01:30:04;;;;;;;12.23;5.93;;;;;;;19.95;100.00;100282.72;5150316;27;20379;-61
2022/09/06 01:33:01;;;;;;;9.57;5.93;;;;;;;19.93;100.00;100283.75;5143493;27;20504;-62
2022/09/06 01:35:51;;;;;;;10.83;5.17;;;;;;;19.93;100.00;100297.03;5144783;27;20289;-62
2022/09/06 01:38:43;;;;;;;8.90;5.03;;;;;;;19.94;100.00;100290.75;5143985;27;20550;-62
2022/09/06 01:41:25;;;;;;;12.43;5.40;;;;;;;19.92;100.00;100289.97;5145180;27;20293;-62
2022/09/06 01:44:03;;;;;;;10.47;4.67;;;;;;;19.95;100.00;100281.88;5142775;27;20281;-61
2022/09/06 01:50:21;;;;;;;12.07;5.63;;;;;;;20.00;100.00;100285.13;5144488;27;20529;-61
2022/09/06 01:53:33;;;;;;;7.67;5.00;;;;;;;19.83;100.00;100249.78;5145013;27;20293;-61
2022/09/06 02:02:58;;;;;;;9.03;5.73;;;;;;;20.16;100.00;100259.44;5097937;27;20289;-62
2022/09/06 02:05:47;;;;;;;12.40;6.47;;;;;;;20.20;100.00;100265.47;5144472;27;20326;-61
2022/09/06 02:08:39;;;;;;;7.57;5.00;;;;;;;20.25;100.00;100258.94;5144061;27;20285;-62
2022/09/06 02:14:12;;;;;;;8.73;5.70;;;;;;;19.89;100.00;100192.06;5143756;27;20630;-62
2022/09/06 02:16:55;;;;;;;9.87;5.50;;;;;;;20.13;100.00;100227.81;5144011;27;20298;-62
2022/09/06 02:19:54;;;;;;;8.03;4.87;;;;;;;20.25;100.00;100237.72;5068958;28;20312;-61
2022/09/06 02:22:41;;;;;;;10.53;5.57;;;;;;;20.28;100.00;100239.34;5060014;28;20290;-61
2022/09/06 02:25:39;;;;;;;7.83;5.13;;;;;;;20.34;100.00;100235.47;5070596;28;20314;-61
2022/09/06 02:28:37;;;;;;;9.40;5.17;;;;;;;20.38;100.00;100231.72;5093839;28;20295;-62
2022/09/06 02:31:39;;;;;;;9.93;5.50;;;;;;;20.46;100.00;100232.13;5062185;28;20301;-61
2022/09/06 02:34:27;;;;;;;9.70;4.77;;;;;;;20.49;100.00;100216.00;5090040;28;20287;-62
2022/09/06 02:40:05;;;;;;;7.47;4.40;;;;;;;20.57;100.00;100224.44;5092913;28;20309;-61
2022/09/06 02:42:53;;;;;;;6.83;5.37;;;;;;;20.55;100.00;100213.03;5057381;28;20295;-61
2022/09/06 02:45:36;;;;;;;7.33;4.67;;;;;;;20.60;100.00;100218.94;5065592;28;20349;-61
2022/09/06 02:48:25;;;;;;;;;;;;;;;20.60;100.00;100221.59;5091646;28;20287;-61
2022/09/06 02:51:24;;;;;;;7.80;4.83;;;;;;;20.56;100.00;100220.03;5093338;28;19917;-62
2022/09/06 02:54:11;;;;;;;10.73;5.27;;;;;;;20.55;100.00;100228.97;5092521;28;20582;-61
2022/09/06 02:56:51;;;;;;;8.73;5.03;;;;;;;20.53;100.00;100220.19;5091113;28;20283;-61
2022/09/06 02:59:34;;;;;;;7.03;5.47;;;;;;;20.51;100.00;100222.09;5091986;28;20314;-61
2022/09/06 03:02:36;;;;;;;8.20;4.95;;;;;;;20.49;100.00;100213.34;5074521;28;20571;-61
2022/09/06 03:05:37;;;;;;;9.60;5.50;;;;;;;20.45;100.00;100218.00;5093322;28;20050;-62
2022/09/06 03:08:36;;;;;;;8.70;4.70;;;;;;;20.44;100.00;100211.00;5043858;28;20286;-61
2022/09/06 03:11:56;;;;;;;7.20;5.03;;;;;;;20.45;100.00;100195.91;4990770;28;20274;-62
2022/09/06 03:15:01;;;;;;;8.60;5.80;;;;;;;20.54;100.00;100184.75;4975960;28;20278;-62
2022/09/06 03:17:55;;;;;;;7.53;5.40;;;;;;;20.58;100.00;100174.84;4990205;28;20285;-61
2022/09/06 03:20:55;;;;;;;9.53;6.43;;;;;;;20.64;100.00;100180.66;4989972;28;20329;-61
2022/09/06 03:24:17;;;;;;;9.43;6.47;;;;;;;20.73;100.00;100163.31;4969529;28;20635;-62
2022/09/06 03:27:25;;;;;;;11.47;6.20;;;;;;;20.83;100.00;100163.59;4989285;28;20290;-62
2022/09/06 03:30:12;;;;;;;9.57;5.90;;;;;;;20.53;100.00;100092.78;5072261;28;20321;-61
2022/09/06 03:33:32;;;;;;;10.23;6.60;;;;;;;20.97;100.00;100160.97;5101380;28;20279;-61
2022/09/06 03:37:08;;;;;;;9.10;6.43;;;;;;;21.05;100.00;100164.00;5100574;28;20294;-62
2022/09/06 03:40:52;;;;;;;10.83;6.77;;;;;;;21.05;100.00;100164.00;5100975;28;20305;-62
2022/09/06 03:44:00;;;;;;;;;;;;;;;;;;;;;
2022/09/06 03:46:41;;;;;;;10.13;6.87;;;;;;;21.03;100.00;100152.59;5101340;28;20078;-62
2022/09/06 03:49:19;;;;;;;11.30;6.55;;;;;;;20.70;100.00;100098.94;5101642;28;21093;-62
2022/09/06 03:52:24;;;;;;;9.47;6.43;;;;;;;20.81;100.00;100130.97;5100518;28;20379;-62
2022/09/06 03:55:14;;;;;;;10.47;6.77;;;;;;;20.97;100.00;100160.97;5071064;28;20337;-61
2022/09/06 04:01:12;;;;;;;12.40;6.43;;;;;;;20.97;100.00;100150.34;5100651;28;20305;-62
2022/09/06 04:04:32;;;;;;;9.43;7.37;;;;;;;21.07;100.00;100150.63;5101064;28;20290;-63
2022/09/06 04:07:25;;;;;;;11.77;7.63;;;;;;;21.08;100.00;100147.88;5065639;28;20275;-61
2022/09/06 04:10:25;;;;;;;11.93;6.20;;;;;;;21.05;100.00;100141.91;5097847;28;20838;-62
2022/09/06 04:13:07;;;;;;;11.68;7.22;;;;;;;20.78;100.00;100110.78;5101138;28;20329;-63
2022/09/06 04:15:49;;;;;;;10.53;7.17;;;;;;;20.95;100.00;100141.63;5100252;28;20055;-62
2022/09/06 04:18:39;;;;;;;14.63;7.90;;;;;;;20.95;100.00;100144.28;5101371;28;20328;-62
2022/09/06 04:22:08;;;;;;;11.90;7.07;;;;;;;20.99;100.00;100148.47;5142159;28;20269;-62
2022/09/06 04:24:57;;;;;;;17.23;7.37;;;;;;;20.89;100.00;100110.97;5135893;28;20297;-64
2022/09/06 04:27:40;;;;;;;9.43;6.90;;;;;;;21.23;100.00;100122.16;5141818;27;20345;-63
2022/09/06 04:30:20;;;;;;;8.70;6.70;;;;;;;21.22;100.00;100090.38;5141083;28;20296;-62
2022/09/06 04:33:09;;;;;;;14.53;7.17;;;;;;;21.59;100.00;100109.28;5141958;28;20055;-62
2022/09/06 04:36:11;;;;;;;11.00;7.10;;;;;;;21.50;100.00;100069.06;5141359;28;20639;-62
2022/09/06 04:41:35;;;;;;;11.93;8.30;;;;;;;21.88;100.00;100105.59;5140980;27;20042;-62
2022/09/06 04:44:13;;;;;;;11.10;6.07;;;;;;;21.92;100.00;100101.78;5141285;27;20285;-64
2022/09/06 04:47:18;;;;;;;13.40;7.07;;;;;;;21.98;100.00;100093.38;5140854;27;20309;-63
2022/09/06 04:49:56;;;;;;;10.53;7.30;;;;;;;22.02;100.00;100093.19;5141214;28;20059;-63
2022/09/06 04:52:53;;;;;;;11.73;7.20;;;;;;;22.05;100.00;100090.31;5141760;27;20055;-63
2022/09/06 04:55:36;;;;;;;14.57;8.03;;;;;;;22.12;100.00;100087.16;5140507;27;20043;-62
2022/09/06 04:58:25;;;;;;;16.47;8.30;;;;;;;22.14;100.00;100073.72;5140306;27;20107;-64
2022/09/06 05:01:21;;;;;;;13.03;7.17;;;;;;;22.16;100.00;100085.13;5141018;28;20059;-62
2022/09/06 05:04:08;;;;;;;15.90;7.83;;;;;;;22.07;100.00;100080.44;5140848;27;20059;-64
2022/09/06 05:07:03;;;;;;;12.10;8.13;;;;;;;21.68;100.00;100020.97;5145191;27;20051;-64
2022/09/06 05:10:02;;;;;;;14.43;8.50;;;;;;;22.00;100.00;100056.03;5143981;27;20054;-64
2022/09/06 05:12:38;;;;;;;15.50;8.83;;;;;;;22.09;100.00;100066.06;5141998;27;20069;-64
2022/09/06 05:15:28;;;;;;;;;;;;;;;22.12;100.00;100067.69;5124780;28;20247;-63
2022/09/06 05:18:52;;;;;;;17.33;7.87;;;;;;;22.07;100.00;100062.66;5124706;28;19927;-64
2022/09/06 05:21:42;;;;;;;12.70;7.73;;;;;;;21.98;100.00;100064.13;5120202;28;20060;-63
2022/09/06 05:24:46;;;;;;;16.27;7.23;;;;;;;21.97;100.00;100077.53;5124179;28;20252;-64
2022/09/06 05:27:28;;;;;;;12.53;8.03;;;;;;;21.96;100.00;100068.69;5124451;28;20044;-63
2022/09/06 05:30:26;;;;;;;11.07;7.57;;;;;;;21.95;100.00;100061.66;5124353;28;20328;-63
2022/09/06 05:33:27;;;;;;;12.40;8.37;;;;;;;21.79;100.00;100026.44;5124257;28;20047;-64
2022/09/06 05:36:03;;;;;;;12.00;7.57;;;;;;;21.97;100.00;100062.41;5121448;28;20285;-64
2022/09/06 05:38:42;;;;;;;10.75;7.70;;;;;;;21.97;100.00;100062.41;5123967;28;20134;-63
2022/09/06 05:41:21;;;;;;;13.97;7.30;;;;;;;21.96;100.00;100054.53;5124158;28;20252;-62
2022/09/06 05:44:04;;;;;;;14.23;7.13;;;;;;;21.92;100.00;100048.56;5113578;28;20036;-64
2022/09/06 05:46:58;;;;;;;11.70;6.33;;;;;;;21.89;100.00;100054.09;5124368;28;20106;-63
2022/09/06 05:49:51;;;;;;;12.80;7.07;;;;;;;21.86;100.00;100048.97;5085084;28;20052;-63
2022/09/06 05:52:37;;;;;;;16.83;6.73;;;;;;;21.71;100.00;100034.88;5123903;28;20082;-64
2022/09/06 05:55:14;;;;;;;10.73;6.50;;;;;;;21.75;100.00;100046.19;5124336;28;20106;-62
2022/09/06 05:58:02;;;;;;;11.23;5.90;;;;;;;21.71;100.00;100044.69;5123765;28;20043;-64
2022/09/06 06:00:50;;;;;;;8.13;5.43;;;;;;;21.67;100.00;100043.19;5118416;28;20114;-63
2022/09/06 06:03:28;;;;;;;13.33;6.33;;;;;;;21.58;100.00;100027.84;5122545;28;20142;-62
2022/09/06 06:06:12;;;;;;;11.47;6.07;;;;;;;21.61;100.00;100032.94;5123523;28;20062;-63
2022/09/06 06:08:51;;;;;;;11.30;5.50;;;;;;;21.57;100.00;100023.44;5120988;28;20048;-65
2022/09/06 06:11:31;;;;;;;10.03;6.00;;;;;;;21.35;100.00;99984.97;5122961;28;20059;-63
2022/09/06 06:14:27;;;;;;;10.33;6.80;;;;;;;21.49;100.00;100019.53;5119161;28;20052;-62
2022/09/06 06:17:26;;;;;;;11.33;6.67;;;;;;;21.47;100.00;100016.09;5122450;28;20059;-65
2022/09/06 06:20:06;;;;;;;13.73;7.00;;;;;;;21.39;100.00;100007.78;5121855;28;20348;-64
2022/09/06 06:22:53;;;;;;;12.33;6.90;;;;;;;21.40;100.00;100020.13;5121789;28;20048;-62
2022/09/06 06:26:02;;;;;;;12.47;6.10;;;;;;;21.39;100.00;100004.25;5121540;28;20059;-63
2022/09/06 06:28:37;;;;;;;8.15;5.78;;;;;;;21.36;100.00;100002.63;5099522;28;20047;-63
2022/09/06 06:31:20;;;;;;;11.13;6.03;;;;;;;21.36;100.00;100002.63;5121161;28;20638;-63
2022/09/06 06:34:02;;;;;;;14.00;6.07;;;;;;;21.36;100.00;99992.00;5123615;28;20035;-62
2022/09/06 06:36:46;;;;;;;11.80;5.67;;;;;;;21.35;100.00;99974.34;5122727;28;20059;-64
2022/09/06 06:39:37;;;;;;;11.30;5.60;;;;;;;21.08;100.00;99924.72;5119759;28;20342;-65
2022/09/06 06:42:29;;;;;;;12.67;5.30;;;;;;;21.53;100.00;99978.47;5121671;28;20309;-65
2022/09/06 06:45:29;;;;;;;13.57;6.23;;;;;;;21.57;100.00;99983.56;5121537;28;20327;-63
2022/09/06 06:48:07;;;;;;;9.30;5.57;;;;;;;21.67;100.00;99990.00;5122565;28;20043;-64
2022/09/06 06:51:05;;;;;;;10.23;5.70;;;;;;;21.70;100.00;99984.47;5121349;28;20073;-64
2022/09/06 06:53:46;;;;;;;13.27;6.23;;;;;;;21.73;100.00;99985.13;5120997;28;20074;-63
2022/09/06 06:56:30;;;;;;;11.53;6.00;;;;;;;21.42;100.00;99917.22;5121675;27;20122;-63
2022/09/06 06:59:11;;;;;;;8.63;5.50;;;;;;;21.72;100.00;99971.94;5120529;28;20059;-65
2022/09/06 07:04:45;;;;;;;10.30;5.70;;;;;;;21.72;100.00;99979.91;5121768;28;20059;-63
2022/09/06 07:07:40;;;;;;;7.97;5.47;;;;;;;21.67;100.00;99976.72;5121635;28;20047;-64
2022/09/06 07:10:26;;;;;;;13.63;6.30;;;;;;;21.60;100.00;99972.75;5121042;28;20345;-65
2022/09/06 07:13:11;;;;;;;9.80;6.07;;;;;;;21.56;100.00;99968.59;5096680;28;20078;-63
2022/09/06 07:15:53;;;;;;;12.47;6.87;;;;;;;21.51;100.00;99980.38;5121971;28;20060;-63
2022/09/06 07:18:29;;;;;;;12.57;6.90;;;;;;;21.39;100.00;99949.31;5122491;28;20059;-63
2022/09/06 07:21:08;;;;;;;12.10;6.57;;;;;;;21.50;100.00;99967.19;5122170;28;20347;-65
2022/09/06 07:24:33;;;;;;;10.90;6.53;;;;;;;21.48;100.00;99967.28;5098424;28;20056;-64
2022/09/06 07:27:17;;;;;;;9.37;6.10;;;;;;;21.48;100.00;99975.28;5060766;28;20069;-63
2022/09/06 07:30:22;;;;;;;13.38;6.25;;;;;;;21.47;100.00;99973.56;5119265;28;20039;-64
2022/09/06 07:33:06;;;;;;;14.50;6.80;;;;;;;21.44;100.00;99954.31;5094479;28;20107;-65
2022/09/06 07:35:59;;;;;;;14.20;6.80;;;;;;;21.41;100.00;99959.81;5118810;28;20307;-64
2022/09/06 07:38:52;;;;;;;13.50;6.23;;;;;;;21.21;100.00;99918.59;5121592;28;20058;-69
2022/09/06 07:41:39;;;;;;;10.90;5.63;;;;;;;21.34;100.00;99935.41;5120924;28;20043;-65
2022/09/06 07:44:28;;;;;;;17.27;6.30;;;;;;;21.34;100.00;99935.41;5090367;28;20051;-63
2022/09/06 07:47:21;;;;;;;12.60;6.83;;;;;;;21.42;100.00;99943.78;5119378;28;20052;-64
2022/09/06 07:53:20;;;;;;;12.87;6.93;;;;;;;21.44;100.00;99931.25;5121436;28;20035;-64
2022/09/06 07:56:09;;;;;;;10.43;6.20;;;;;;;21.33;100.00;99891.22;5121252;28;20054;-63
2022/09/06 07:58:56;;;;;;;12.77;6.80;;;;;;;21.41;100.00;99910.19;5121286;28;20281;-65
2022/09/06 08:01:47;;;;;;;13.67;6.83;;;;;;;21.44;100.00;99910.00;5121494;28;20329;-65
2022/09/06 08:04:28;;;;;;;14.27;7.47;;;;;;;21.41;100.00;99910.19;5121593;28;20347;-64
2022/09/06 08:07:03;;;;;;;14.13;7.20;;;;;;;21.39;100.00;99912.13;5120851;28;20039;-64
2022/09/06 08:16:38;;;;;;;19.03;7.73;;;;;;;21.27;100.00;99891.63;5121422;28;20289;-65
2022/09/06 08:22:12;;;;;;;18.90;9.87;;;;;;;21.22;100.00;99877.81;5120284;28;20344;-65
2022/09/06 08:25:05;;;;;;;18.10;7.93;;;;;;;21.16;100.00;99881.69;5088860;28;20305;-63
2022/09/06 08:28:12;;;;;;;22.85;8.93;;;;;;;21.12;100.00;99885.53;5121344;28;20334;-65
2022/09/06 08:30:54;;;;;;;;;;;;;;;21.09;100.00;99878.63;5117846;28;20047;-63
2022/09/06 08:34:08;;;;;;;18.97;9.50;;;;;;;21.04;100.00;99875.41;5116832;28;19974;-64
2022/09/06 08:36:51;;;;;;;22.13;9.38;;;;;;;20.90;100.00;99840.94;5119216;28;20614;-63
2022/09/06 08:39:39;;;;;;;20.43;9.33;;;;;;;20.93;100.00;99850.50;5121106;28;20043;-64
2022/09/06 08:42:52;;;;;;;17.63;8.63;;;;;;;20.88;100.00;99843.69;5124892;28;20373;-64
2022/09/06 08:46:09;;;;;;;19.23;9.48;;;;;;;20.80;100.00;99839.84;5123444;28;20578;-64
2022/09/06 08:49:05;;;;;;;28.53;10.70;;;;;;;20.73;100.00;99841.19;5121760;28;20096;-64
2022/09/06 08:52:22;;;;;;;30.13;13.33;;;;;;;20.66;100.00;99838.91;5123963;28;20451;-65
2022/09/06 08:55:23;;;;;;;35.13;14.33;;;;;;;20.54;100.00;99823.75;5093812;28;20582;-64
2022/09/06 08:58:33;;;;;;;17.53;8.47;;;;;;;20.52;100.00;99827.47;5087739;28;20285;-64
2022/09/06 09:01:13;;;;;;;67.73;22.40;;;;;;;20.46;100.00;99832.22;5125056;28;20750;-63
2022/09/06 09:03:59;;;;;;;22.80;11.53;;;;;;;20.43;100.00;99826.28;5123038;28;20291;-64
2022/09/06 09:06:54;;;;;;;26.27;12.70;;;;;;;20.38;100.00;99833.66;5122003;28;20634;-63
2022/09/06 09:09:34;;;;;;;23.37;11.87;;;;;;;20.33;100.00;99833.13;5122901;28;20313;-62
2022/09/06 09:12:25;;;;;;;24.30;13.37;;;;;;;20.18;100.00;99811.91;5125038;28;20286;-64
2022/09/06 09:15:12;;;;;;;25.33;11.63;;;;;;;20.19;100.00;99824.25;5124541;28;20577;-62
2022/09/06 09:18:07;;;;;;;23.63;12.73;;;;;;;20.24;100.00;99826.56;5121954;28;20292;-62
2022/09/06 09:20:59;;;;;;;26.20;12.17;;;;;;;20.17;100.00;99826.13;5124110;28;20320;-63
2022/09/06 09:23:46;;;;;;;30.23;12.90;;;;;;;20.09;100.00;99825.75;5124866;28;20304;-62
2022/09/06 09:26:24;;;;;;;24.97;11.10;;;;;;;20.05;100.00;99818.94;5123729;28;20274;-64
2022/09/06 09:29:21;;;;;;;22.97;9.93;;;;;;;20.00;100.00;99807.78;5124406;28;20282;-63
2022/09/06 09:32:07;;;;;;;17.70;8.97;;;;;;;19.96;100.00;99801.78;5124869;28;20286;-65
2022/09/06 09:34:50;;;;;;;18.17;8.00;;;;;;;19.93;100.00;99790.53;5124243;28;20304;-63
2022/09/06 09:37:30;;;;;;;17.50;7.20;;;;;;;19.85;100.00;99779.56;5122201;28;20310;-63
2022/09/06 09:40:34;;;;;;;25.92;11.40;;;;;;;19.84;100.00;99791.94;5122745;28;20288;-64
2022/09/06 09:43:18;;;;;;;23.80;15.17;;;;;;;19.54;100.00;99718.66;5123329;28;20065;-63
2022/09/06 09:46:33;;;;;;;35.57;22.43;;;;;;;19.77;100.00;99770.28;5120878;28;20304;-63
2022/09/06 09:49:40;;;;;;;37.40;25.75;;;;;;;19.72;100.00;99769.72;5123772;28;20285;-63
2022/09/06 09:52:25;;;;;;;29.20;19.83;;;;;;;19.66;100.00;99766.56;5123216;28;20055;-63
2022/09/06 09:55:08;;;;;;;20.07;11.73;;;;;;;19.55;100.00;99751.34;5123947;28;20290;-63
2022/09/06 10:03:36;;;;;;;68.05;40.13;;;;;;;19.53;100.00;99747.94;5123474;28;20317;-63
2022/09/06 10:06:38;;;;;;;92.70;74.50;;;;;;;19.53;100.00;99747.94;5123305;28;20404;-64
2022/09/06 10:09:42;;;;;;;46.90;32.90;;;;;;;19.49;100.00;99743.75;5122894;28;20270;-64
2022/09/06 10:12:32;;;;;;;32.67;22.60;;;;;;;19.47;100.00;99748.28;5123699;28;20286;-63
2022/09/06 10:15:42;;;;;;;39.07;25.87;;;;;;;19.29;100.00;99708.72;5123212;28;20293;-64
2022/09/06 10:18:42;;;;;;;40.07;28.07;;;;;;;19.51;100.00;99747.16;5120535;28;20650;-63
2022/09/06 10:21:22;;;;;;;36.93;26.27;;;;;;;19.47;100.00;99745.63;5122962;28;20315;-64
2022/09/06 10:24:29;;;;;;;48.10;35.17;;;;;;;19.45;100.00;99744.91;5120604;28;20300;-63
2022/09/06 10:27:07;;;;;;;32.80;24.17;;;;;;;19.45;100.00;99742.25;5123381;28;20293;-63
2022/09/06 10:29:51;;;;;;;35.67;27.33;;;;;;;19.32;100.00;99713.00;5123669;28;20292;-64
2022/09/06 10:32:52;;;;;;;37.97;26.80;;;;;;;19.45;100.00;99727.19;5123348;28;20440;-63
2022/09/06 10:35:36;;;;;;;36.27;22.87;;;;;;;19.37;100.00;99709.13;5095243;28;20342;-64
2022/09/06 10:38:38;;;;;;;17.77;10.27;;;;;;;19.11;100.00;99702.75;5080939;27;20296;-64
2022/09/06 10:41:47;;;;;;;29.47;8.70;;;;;;;18.66;100.00;99658.69;5122815;28;20274;-64
2022/09/06 10:44:48;;;;;;;25.87;9.10;;;;;;;18.50;100.00;99659.63;5122178;28;20384;-63
2022/09/06 10:48:00;;;;;;;13.03;8.23;;;;;;;18.42;100.00;99650.41;5122858;28;20935;-64
2022/09/06 10:51:02;;;;;;;10.10;8.03;;;;;;;18.42;100.00;99646.00;5122982;28;20312;-63
2022/09/06 10:53:58;;;;;;;15.27;7.53;;;;;;;18.37;100.00;99637.47;5069900;28;20293;-64
2022/09/06 10:56:55;;;;;;;10.97;8.00;;;;;;;18.33;100.00;99628.00;5081844;28;20295;-64
2022/09/06 10:59:51;;;;;;;21.10;7.97;;;;;;;18.35;100.00;99622.63;5122002;28;20288;-64
2022/09/06 11:02:41;;;;;;;9.80;7.50;;;;;;;18.05;100.00;99574.09;5121609;28;20289;-64
2022/09/06 11:05:56;;;;;;;12.87;7.90;;;;;;;18.32;100.00;99610.41;5122419;28;20270;-64
2022/09/06 11:08:42;;;;;;;14.00;7.90;;;;;;;18.20;100.00;99592.66;5122558;28;20366;-64
2022/09/06 11:11:25;;;;;;;12.60;8.63;;;;;;;18.26;100.00;99597.56;5121590;28;20337;-65
2022/09/06 11:14:43;;;;;;;12.07;7.60;;;;;;;17.89;100.00;99521.25;5122553;28;20059;-64
2022/09/06 11:17:25;;;;;;;13.00;7.17;;;;;;;18.31;100.00;99584.94;5118708;28;20296;-64
2022/09/06 11:20:10;;;;;;;10.10;6.80;;;;;;;18.31;100.00;99579.63;5122147;28;20293;-64
2022/09/06 11:23:11;;;;;;;12.53;6.23;;;;;;;18.32;100.00;99565.47;5121478;28;20505;-64
2022/09/06 11:26:15;;;;;;;9.07;3.90;;;;;;;18.44;100.00;99566.53;5122629;28;20281;-64
2022/09/06 11:28:58;;;;;;;13.20;4.90;;;;;;;18.52;100.00;99561.63;5119608;28;20301;-65
2022/09/06 11:32:00;;;;;;;20.57;7.30;;;;;;;18.64;100.00;99573.25;5121450;28;20281;-66
2022/09/06 11:34:58;;;;;;;8.13;4.03;;;;;;;18.72;100.00;99576.28;5120865;28;20331;-65
2022/09/06 11:37:48;;;;;;;10.10;4.47;;;;;;;18.79;100.00;99580.28;5121622;28;20285;-66
2022/09/06 11:40:40;;;;;;;12.80;4.67;;;;;;;18.80;100.00;99576.72;5121701;28;20290;-66
2022/09/06 11:43:49;;;;;;;25.30;8.87;;;;;;;18.79;100.00;99575.00;5120101;28;20627;-66
2022/09/06 11:47:06;;;;;;;16.43;6.60;;;;;;;18.83;100.00;99570.38;5121299;28;20286;-67
2022/09/06 11:49:51;;;;;;;12.00;4.17;;;;;;;18.81;100.00;99573.13;5121937;28;20295;-65
2022/09/06 11:53:16;;;;;;;12.37;4.47;;;;;;;18.87;100.00;99551.59;5121467;28;20765;-65
2022/09/06 11:56:26;;;;;;;8.77;3.43;;;;;;;18.88;100.00;99526.81;5048489;28;20333;-65
2022/09/06 11:59:16;;;;;;;12.43;3.40;;;;;;;18.91;100.00;99513.38;5100224;28;20911;-67
2022/09/06 12:02:36;;;;;;;13.90;3.53;;;;;;;18.94;100.00;99514.97;5117005;28;20335;-66
2022/09/06 12:05:31;;;;;;;8.77;3.20;;;;;;;19.03;100.00;99502.97;5121541;28;20281;-65
2022/09/06 12:08:51;;;;;;;10.67;3.30;;;;;;;19.07;100.00;99488.56;5121520;28;20305;-66
2022/09/06 12:11:40;;;;;;;10.77;3.17;;;;;;;18.96;100.00;99455.69;5120939;28;20324;-65
2022/09/06 12:14:45;;;;;;;;;;;;;;;;;;;;;
2022/09/06 12:17:58;;;;;;;11.17;3.60;;;;;;;19.12;100.00;99462.63;5047881;28;20363;-65
2022/09/06 12:24:01;;;;;;;10.93;2.90;;;;;;;19.15;100.00;99454.53;5008519;28;20312;-65
2022/09/06 12:27:19;;;;;;;11.55;3.30;;;;;;;19.14;100.00;99458.09;5008050;28;20364;-66
2022/09/06 12:30:18;;;;;;;12.53;3.47;;;;;;;19.09;100.00;99445.16;5008883;28;20224;-66
2022/09/06 12:36:21;;;;;;;10.07;3.80;;;;;;;19.07;100.00;99414.44;4974094;28;20285;-65
2022/09/06 12:39:20;;;;;;;14.80;5.80;;;;;;;19.03;100.00;99402.34;4977675;28;20289;-64
2022/09/06 12:42:03;;;;;;;10.63;4.47;;;;;;;18.99;100.00;99395.56;5008251;28;20368;-65
2022/09/06 12:44:37;;;;;;;11.77;5.00;;;;;;;18.78;100.00;99361.59;5008514;28;20321;-66
2022/09/06 12:47:18;;;;;;;14.13;5.73;;;;;;;18.98;100.00;99407.09;5008243;28;20340;-67
2022/09/06 12:50:16;;;;;;;13.33;3.73;;;;;;;18.94;100.00;99407.28;5007787;28;20293;-67
2022/09/06 12:53:03;;;;;;;11.20;3.03;;;;;;;18.91;100.00;99410.13;5008966;28;20285;-66
2022/09/06 12:55:48;;;;;;;13.65;3.10;;;;;;;18.85;100.00;99394.66;5008965;28;20320;-66
2022/09/06 12:58:32;;;;;;;7.57;2.93;;;;;;;18.91;100.00;99375.72;5007744;28;20059;-68
2022/09/06 13:01:23;;;;;;;;;;;;;;;;;;;;;
2022/09/06 13:04:43;;;;;;;10.77;3.00;;;;;;;19.16;100.00;99350.28;5049277;28;20329;-68
2022/09/06 13:07:30;;;;;;;11.67;3.00;;;;;;;18.93;100.00;99297.06;5054077;28;20693;-68
2022/09/06 13:10:28;;;;;;;10.60;3.00;;;;;;;19.33;99.82;99373.84;5119096;28;20411;-65
2022/09/06 13:13:27;;;;;;;8.60;3.07;;;;;;;19.34;99.67;99378.19;5094717;28;20274;-66
2022/09/06 13:16:15;;;;;;;8.77;2.70;;;;;;;18.81;99.17;99287.28;5115685;28;20328;-67
2022/09/06 13:18:54;;;;;;;11.97;3.23;;;;;;;19.40;98.94;99364.53;5119506;28;20308;-66
2022/09/06 13:21:54;;;;;;;7.50;3.20;;;;;;;19.44;98.68;99365.16;5120420;28;20301;-66
2022/09/06 13:25:00;;;;;;;12.63;3.87;;;;;;;19.45;98.47;99339.56;5095281;28;20310;-67
2022/09/06 13:28:07;;;;;;;9.57;2.93;;;;;;;19.50;97.84;99321.53;5082700;28;20286;-66
2022/09/06 13:30:46;;;;;;;8.50;2.90;;;;;;;19.48;97.41;99318.13;5124845;28;20368;-66
2022/09/06 13:33:32;;;;;;;6.87;2.90;;;;;;;19.50;97.19;99310.94;5124125;28;20591;-68
2022/09/06 13:36:27;;;;;;;11.73;3.87;;;;;;;19.56;96.70;99299.91;5121518;28;20287;-65
2022/09/06 13:39:11;;;;;;;8.80;3.20;;;;;;;19.56;96.56;99278.72;5123641;28;20492;-66
2022/09/06 13:42:01;;;;;;;11.47;3.50;;;;;;;19.60;96.03;99280.19;5123775;28;20300;-68
2022/09/06 13:44:52;;;;;;;16.80;3.40;;;;;;;19.61;95.50;99301.28;5123185;28;20325;-70
2022/09/06 13:47:41;;;;;;;11.87;3.40;;;;;;;19.60;95.42;99290.81;5124051;28;20293;-65
2022/09/06 13:50:18;;;;;;;13.20;3.43;;;;;;;19.58;95.59;99292.72;5123824;28;20277;-66
2022/09/06 13:53:04;;;;;;;11.57;3.70;;;;;;;19.55;95.45;99308.81;5123677;28;20289;-69
2022/09/06 13:55:47;;;;;;;9.27;2.93;;;;;;;19.54;95.26;99312.41;5123957;28;20297;-66
2022/09/06 13:58:33;;;;;;;11.13;3.10;;;;;;;19.16;95.30;99254.94;5122868;28;20297;-67
2022/09/06 14:01:16;;;;;;;10.23;3.17;;;;;;;19.50;95.45;99316.25;5121316;28;20373;-66
2022/09/06 14:04:01;;;;;;;12.57;3.70;;;;;;;19.52;94.98;99324.91;5122879;28;20689;-67
2022/09/06 14:07:17;;;;;;;13.87;3.87;;;;;;;19.49;95.03;99306.56;5083316;28;20336;-65
2022/09/06 14:09:58;;;;;;;12.83;3.67;;;;;;;19.48;94.92;99312.84;5123206;28;20282;-67
2022/09/06 14:12:41;;;;;;;12.53;3.60;;;;;;;19.22;94.87;99265.16;5123674;28;20281;-69
2022/09/06 14:15:32;;;;;;;9.53;3.67;;;;;;;19.45;94.97;99291.88;5097009;28;20292;-68
2022/09/06 14:18:09;;;;;;;11.30;3.40;;;;;;;19.46;94.92;99288.25;5089063;28;20336;-67